Terminal Aerodrome Forecast
Issued by NWS Cleveland, OH

Home | Current Version | Previous Version | Text Only | Print | Product List | Glossary Off
Versions: 1 2 3 4 5 6 7 8 9 10 11 12 13 14 15

000
FTUS41 KCLE 241657 AAA
TAFMFD
TAF AMD
KMFD 241657Z 2417/2512 03008KT P6SM BKN035
     FM242000 04008KT P6SM SCT040
     FM242300 06004KT P6SM SKC=

USA.gov is the U.S. government's official web portal to all federal, state and local government web resources and services.